Arlington, Kansas
Current Conditions -  °F | °C
As of 12:52 PM on Thursday 30 Oct 2014 (Local Time) from KHUT Reporting Station
Clear Clear  
Wind Chill: 71°   Ceiling: Unl
Heat Index: 71°   Visibility: 10mi
Dew Point: 37°   Wind: 15mph
Humidity: 29%   Direction: 340°NNW
Pressure: 30.17"   Gusts: 23mph
Location:  37.9°N, 98.18°W
Report Text: KHUT 301752Z 34013G20KT 10SM CLR 22/03 A3017 RMK AO2 SLP204 T02170028 10217 20067 50003
Loading
Personal Weather Stations






























Interactive Weather Map New forecast layout! Learn more

10-Day Weather Forecast

Advertisements
Track Severe Weather on mobile